createdAt,value
2019-06-08T00:00:26.878Z,17.55
2019-06-08T00:03:12.984Z,17.44
2019-06-08T00:05:52.106Z,17.39
2019-06-08T00:08:57.904Z,17.45
2019-06-08T00:18:39.558Z,17.46
2019-06-08T00:21:42.714Z,17.56
2019-06-08T00:24:36.571Z,17.49
2019-06-08T00:27:44.608Z,17.52
2019-06-08T00:30:26.510Z,17.64
2019-06-08T00:33:12.469Z,17.36
2019-06-08T00:35:47.749Z,17.56
2019-06-08T00:38:26.190Z,17.74
2019-06-08T00:41:04.427Z,17.67
2019-06-08T00:43:38.587Z,17.75
2019-06-08T00:46:10.620Z,17.67
2019-06-08T00:48:47.254Z,17.75
2019-06-08T00:51:19.414Z,17.75
2019-06-08T00:53:51.710Z,17.74
2019-06-08T00:56:24.107Z,17.82
2019-06-08T00:58:57.907Z,17.77
2019-06-08T01:01:34.541Z,17.79
2019-06-08T01:04:06.773Z,17.83
2019-06-08T01:06:39.535Z,17.77
2019-06-08T01:09:12.374Z,17.79
2019-06-08T01:11:43.870Z,17.79
2019-06-08T01:14:15.300Z,17.63
2019-06-08T01:16:47.304Z,17.80
2019-06-08T01:19:19.214Z,17.79
2019-06-08T01:21:52.215Z,17.82
2019-06-08T01:24:23.798Z,17.76
2019-06-08T01:26:55.086Z,17.76
2019-06-08T01:29:26.523Z,17.72
2019-06-08T01:31:57.887Z,17.74
2019-06-08T01:34:29.251Z,17.72
2019-06-08T01:37:00.697Z,17.69
2019-06-08T01:39:32.516Z,17.69
2019-06-08T01:42:04.218Z,17.64
2019-06-08T01:44:35.921Z,17.68
2019-06-08T01:47:07.270Z,17.63
2019-06-08T01:49:38.636Z,17.67
2019-06-08T01:52:10.104Z,17.65
2019-06-08T01:54:41.652Z,17.62
2019-06-08T01:57:14.616Z,17.64
2019-06-08T01:59:46.364Z,17.65
2019-06-08T02:02:17.748Z,17.66
2019-06-08T02:04:49.193Z,17.64
2019-06-08T02:07:20.679Z,17.64
2019-06-08T02:09:52.396Z,17.67
2019-06-08T02:12:24.809Z,17.58
2019-06-08T02:14:56.275Z,17.69
2019-06-08T02:17:27.797Z,17.65
2019-06-08T02:19:59.223Z,17.59
2019-06-08T02:22:30.992Z,17.53
2019-06-08T02:25:02.563Z,17.58
2019-06-08T02:27:35.453Z,17.61
2019-06-08T02:30:08.945Z,17.50
2019-06-08T02:32:40.946Z,17.55
2019-06-08T02:35:12.562Z,17.22
2019-06-08T02:37:44.082Z,16.82
2019-06-08T02:40:16.463Z,16.90
2019-06-08T02:42:47.894Z,16.84
2019-06-08T02:45:19.897Z,16.76
2019-06-08T02:47:52.450Z,16.72
2019-06-08T02:51:08.892Z,16.74
2019-06-08T02:53:41.565Z,16.75
2019-06-08T02:56:15.880Z,16.90
2019-06-08T02:58:50.512Z,16.88
2019-06-08T03:01:23.741Z,16.89
2019-06-08T03:03:56.748Z,16.64
2019-06-08T03:06:32.337Z,16.69
2019-06-08T03:09:06.733Z,16.82
2019-06-08T03:11:39.188Z,16.79
2019-06-08T03:14:11.191Z,16.86
2019-06-08T03:16:43.470Z,16.78
2019-06-08T03:19:21.651Z,16.77
2019-06-08T03:21:48.607Z,16.83
2019-06-08T03:24:20.398Z,16.79
2019-06-08T03:26:53.851Z,16.88
2019-06-08T03:29:25.253Z,16.96
2019-06-08T03:31:57.823Z,16.85
2019-06-08T03:34:29.237Z,16.70
2019-06-08T03:37:00.750Z,16.56
2019-06-08T03:39:32.200Z,16.56
2019-06-08T03:42:03.530Z,16.49
2019-06-08T03:44:36.144Z,16.42
2019-06-08T03:47:07.524Z,16.59
2019-06-08T03:49:47.491Z,16.35
2019-06-08T03:52:12.444Z,16.52
2019-06-08T03:54:46.964Z,16.44
2019-06-08T03:57:18.503Z,16.34
2019-06-08T03:59:51.714Z,16.31
2019-06-08T04:02:23.599Z,16.30
2019-06-08T04:04:55.334Z,16.33
2019-06-08T04:07:27.200Z,16.35
2019-06-08T04:09:58.525Z,16.46
2019-06-08T04:12:29.809Z,16.29
2019-06-08T04:15:01.404Z,16.21
2019-06-08T04:17:35.641Z,16.05
2019-06-08T04:20:11.552Z,16.35
2019-06-08T04:22:47.024Z,16.23
2019-06-08T04:25:18.084Z,16.21
2019-06-08T04:27:51.051Z,16.17
2019-06-08T04:30:22.828Z,16.13
2019-06-08T04:32:54.661Z,16.10
2019-06-08T04:35:27.162Z,16.24
2019-06-08T04:37:58.620Z,16.37
2019-06-08T04:40:30.465Z,16.37
2019-06-08T04:43:01.899Z,16.42
2019-06-08T04:45:33.739Z,16.32
2019-06-08T04:48:09.289Z,16.46
2019-06-08T04:50:38.734Z,16.47
2019-06-08T04:53:10.632Z,16.67
2019-06-08T04:55:43.423Z,16.66
2019-06-08T04:58:15.801Z,16.69
2019-06-08T05:00:48.744Z,16.75
2019-06-08T05:03:22.443Z,16.82
2019-06-08T05:05:54.012Z,16.80
2019-06-08T05:08:26.086Z,16.89
2019-06-08T05:10:57.914Z,16.72
2019-06-08T05:13:41.174Z,16.52
2019-06-08T05:16:12.774Z,16.80
2019-06-08T05:18:45.292Z,16.88
2019-06-08T05:21:16.715Z,16.85
2019-06-08T05:23:57.568Z,16.82
2019-06-08T05:26:21.105Z,16.94
2019-06-08T05:28:53.986Z,17.07
2019-06-08T05:31:25.940Z,17.22
2019-06-08T05:33:59.087Z,17.14
2019-06-08T05:36:34.458Z,17.15
2019-06-08T05:39:07.934Z,17.20
2019-06-08T05:41:49.829Z,17.23
2019-06-08T05:44:21.994Z,16.97
2019-06-08T05:46:53.948Z,17.33
2019-06-08T05:49:25.416Z,17.48
2019-06-08T05:51:56.713Z,17.95
2019-06-08T05:54:28.109Z,18.31
2019-06-08T05:57:00.406Z,18.05
2019-06-08T05:59:31.829Z,18.05
2019-06-08T06:02:03.275Z,17.90
2019-06-08T06:04:35.043Z,17.99
2019-06-08T06:07:06.896Z,17.35
2019-06-08T06:09:41.131Z,17.88
2019-06-08T06:12:13.071Z,18.21
2019-06-08T06:14:46.840Z,17.69
2019-06-08T06:17:19.541Z,17.71
2019-06-08T06:19:51.561Z,18.17
2019-06-08T06:22:23.462Z,18.51
2019-06-08T06:24:54.850Z,18.78
2019-06-08T06:27:27.259Z,18.89
2019-06-08T06:30:02.035Z,19.43
2019-06-08T06:32:34.828Z,19.65
2019-06-08T06:35:11.490Z,19.70
2019-06-08T06:38:10.013Z,20.01
2019-06-08T06:40:48.070Z,19.87
2019-06-08T06:43:28.213Z,19.23
2019-06-08T06:46:35.775Z,18.06
2019-06-08T06:49:28.109Z,18.01
2019-06-08T06:52:22.900Z,18.03
2019-06-08T06:54:47.185Z,18.06
2019-06-08T06:57:19.634Z,18.18
2019-06-08T07:00:07.115Z,18.11
2019-06-08T07:02:48.071Z,18.63
2019-06-08T07:05:29.286Z,18.44
2019-06-08T07:08:04.951Z,18.37
2019-06-08T07:10:37.060Z,18.19
2019-06-08T07:13:20.941Z,18.00
2019-06-08T07:15:54.899Z,17.90
2019-06-08T07:18:27.035Z,17.72
2019-06-08T07:20:58.617Z,17.75
2019-06-08T07:23:30.812Z,18.18
2019-06-08T07:26:03.076Z,17.99
2019-06-08T07:28:34.751Z,17.88
2019-06-08T07:31:06.245Z,18.13
2019-06-08T07:33:37.583Z,17.86
2019-06-08T07:36:12.709Z,17.85
2019-06-08T07:38:44.962Z,17.94
2019-06-08T07:41:17.141Z,18.00
2019-06-08T07:43:52.887Z,17.71
2019-06-08T07:46:24.560Z,18.00
2019-06-08T07:48:56.635Z,18.12
2019-06-08T07:51:31.690Z,17.84
2019-06-08T07:54:04.325Z,17.62
2019-06-08T07:56:36.149Z,17.81
2019-06-08T07:59:07.991Z,18.20
2019-06-08T08:01:59.307Z,18.29
2019-06-08T08:04:43.091Z,18.55
2019-06-08T08:10:37.849Z,18.33
2019-06-08T08:13:12.378Z,18.77
2019-06-08T08:15:54.267Z,18.44
2019-06-08T08:18:26.184Z,18.66
2019-06-08T08:21:04.363Z,18.82
2019-06-08T08:23:34.381Z,19.41
2019-06-08T08:26:06.181Z,19.39
2019-06-08T08:28:37.621Z,19.03
2019-06-08T08:31:11.371Z,18.73
2019-06-08T08:33:42.209Z,18.98
2019-06-08T08:36:15.494Z,19.33
2019-06-08T08:38:47.878Z,19.43
2019-06-08T08:41:19.370Z,19.06
2019-06-08T08:43:52.634Z,19.98
2019-06-08T08:46:25.041Z,19.85
2019-06-08T08:49:06.017Z,19.31
2019-06-08T08:51:54.434Z,19.31
2019-06-08T08:55:04.016Z,19.05
2019-06-08T08:57:59.430Z,19.20
2019-06-08T09:00:44.697Z,18.70
2019-06-08T09:04:12.713Z,18.65
2019-06-08T09:06:32.564Z,18.45
2019-06-08T09:09:08.683Z,17.78
2019-06-08T09:11:41.345Z,17.90
2019-06-08T09:14:14.281Z,17.63
2019-06-08T09:16:48.198Z,17.88
2019-06-08T09:19:21.036Z,18.21
2019-06-08T09:21:54.046Z,17.88
2019-06-08T09:24:25.589Z,17.94
2019-06-08T09:27:00.881Z,18.02
2019-06-08T09:30:44.603Z,18.49
2019-06-08T09:33:18.591Z,18.50
2019-06-08T09:35:49.560Z,18.35
2019-06-08T09:38:21.351Z,18.71
2019-06-08T09:40:54.983Z,18.78
2019-06-08T09:43:28.748Z,18.52
2019-06-08T09:46:02.054Z,18.46
2019-06-08T09:48:32.962Z,18.34
2019-06-08T09:51:05.850Z,17.91
2019-06-08T09:53:41.398Z,18.02
2019-06-08T09:56:11.891Z,18.18
2019-06-08T10:00:26.351Z,18.26
2019-06-08T10:02:58.947Z,18.16
2019-06-08T10:05:28.819Z,18.01
2019-06-08T10:08:02.159Z,17.74
2019-06-08T10:10:33.832Z,17.66
2019-06-08T10:13:09.363Z,17.43
2019-06-08T10:15:39.281Z,17.51
2019-06-08T10:18:12.172Z,17.60
2019-06-08T10:20:45.065Z,17.46
2019-06-08T10:23:30.835Z,17.41
2019-06-08T10:25:50.912Z,17.56
2019-06-08T10:28:22.868Z,17.59
2019-06-08T10:32:38.910Z,17.57
2019-06-08T10:35:11.036Z,17.73
2019-06-08T10:37:42.786Z,17.92
2019-06-08T10:40:14.886Z,17.95
2019-06-08T10:42:48.244Z,17.67
2019-06-08T10:45:20.075Z,17.53
2019-06-08T10:47:51.639Z,17.34
2019-06-08T10:50:24.765Z,17.29
2019-06-08T10:55:04.940Z,17.43
2019-06-08T10:57:37.454Z,17.72
2019-06-08T11:00:19.300Z,17.71
2019-06-08T11:02:43.359Z,17.84
2019-06-08T11:05:17.899Z,17.76
2019-06-08T11:07:48.685Z,17.96
2019-06-08T11:10:20.381Z,17.82
2019-06-08T11:12:51.785Z,17.99
2019-06-08T11:15:23.796Z,18.34
2019-06-08T11:18:00.453Z,18.30
2019-06-08T11:20:30.160Z,17.86
2019-06-08T11:23:03.488Z,17.88
2019-06-08T11:25:37.546Z,18.00
2019-06-08T11:28:13.802Z,17.75
2019-06-08T11:30:41.413Z,17.30
2019-06-08T11:33:15.913Z,17.19
2019-06-08T11:35:47.257Z,17.12
2019-06-08T11:38:20.295Z,17.12
2019-06-08T11:40:51.769Z,17.16
2019-06-08T11:43:23.147Z,17.15
2019-06-08T11:45:54.514Z,17.13
2019-06-08T11:50:07.292Z,17.21
2019-06-08T11:52:39.103Z,17.61
2019-06-08T11:55:12.694Z,17.49
2019-06-08T11:57:44.247Z,17.43
2019-06-08T12:00:30.191Z,17.50
2019-06-08T12:02:58.148Z,17.48
2019-06-08T12:05:29.736Z,17.48
2019-06-08T12:08:04.376Z,17.34
2019-06-08T12:10:38.253Z,17.57
2019-06-08T12:13:12.618Z,17.73
2019-06-08T12:15:48.195Z,17.31
2019-06-08T12:18:19.692Z,17.50
2019-06-08T12:20:51.447Z,17.08
2019-06-08T12:23:22.817Z,17.01
2019-06-08T12:25:56.595Z,17.13
2019-06-08T12:28:28.381Z,16.86
2019-06-08T12:31:01.046Z,16.79
2019-06-08T12:36:01.042Z,17.00
2019-06-08T12:38:34.642Z,17.00
2019-06-08T12:41:07.956Z,16.95
2019-06-08T12:43:38.674Z,17.02
2019-06-08T12:46:12.585Z,17.06
2019-06-08T12:48:43.100Z,17.32
2019-06-08T12:51:16.448Z,17.32
2019-06-08T12:53:48.068Z,17.34
2019-06-08T12:56:23.940Z,17.09
2019-06-08T12:58:52.517Z,17.17
2019-06-08T13:01:25.299Z,17.06
2019-06-08T13:03:59.508Z,17.15
2019-06-08T13:06:32.503Z,17.06
2019-06-08T13:09:08.996Z,16.96
2019-06-08T13:11:45.857Z,17.08
2019-06-08T13:14:21.623Z,17.09
2019-06-08T13:16:55.445Z,17.17
2019-06-08T13:19:27.703Z,17.06
2019-06-08T13:22:00.086Z,17.15
2019-06-08T13:24:41.731Z,17.29
2019-06-08T13:27:15.129Z,17.32
2019-06-08T13:29:48.773Z,17.47
2019-06-08T13:32:21.874Z,17.56
2019-06-08T13:34:54.372Z,17.30
2019-06-08T13:37:27.572Z,17.25
2019-06-08T13:39:59.454Z,17.19
2019-06-08T13:42:31.374Z,16.95
2019-06-08T13:45:03.512Z,17.02
2019-06-08T13:47:40.464Z,17.10
2019-06-08T13:50:10.970Z,17.02
2019-06-08T13:52:43.269Z,17.13
2019-06-08T13:55:32.775Z,16.95
2019-06-08T13:57:49.178Z,16.97
2019-06-08T14:00:32.792Z,16.97
2019-06-08T14:03:04.561Z,17.12
2019-06-08T14:05:38.533Z,17.08
2019-06-08T14:08:10.961Z,17.21
2019-06-08T14:10:43.874Z,17.19
2019-06-08T14:13:15.248Z,17.17
2019-06-08T14:15:48.779Z,17.14
2019-06-08T14:18:26.275Z,17.09
2019-06-08T14:20:58.523Z,17.15
2019-06-08T14:23:43.387Z,17.49
2019-06-08T14:26:14.806Z,17.76
2019-06-08T14:28:46.103Z,17.80
2019-06-08T14:31:19.763Z,18.01
2019-06-08T14:33:51.034Z,18.18
2019-06-08T14:36:23.247Z,18.32
2019-06-08T14:39:01.737Z,18.37
2019-06-08T14:41:31.406Z,18.21
2019-06-08T14:44:02.096Z,18.34
2019-06-08T14:46:33.803Z,18.47
2019-06-08T14:49:06.246Z,18.33
2019-06-08T14:51:51.114Z,18.06
2019-06-08T14:54:26.688Z,18.15
2019-06-08T14:56:57.849Z,18.02
2019-06-08T14:59:31.597Z,17.99
2019-06-08T15:02:02.632Z,17.91
2019-06-08T15:04:36.879Z,17.90
2019-06-08T15:07:09.541Z,17.93
2019-06-08T15:09:41.502Z,18.01
2019-06-08T15:12:12.832Z,17.96
2019-06-08T15:14:44.342Z,18.06
2019-06-08T15:17:16.216Z,18.02
2019-06-08T15:19:47.669Z,18.05
2019-06-08T15:22:20.749Z,18.18
2019-06-08T15:24:52.649Z,18.08
2019-06-08T15:27:25.876Z,18.29
2019-06-08T15:29:58.664Z,18.34
2019-06-08T15:32:33.912Z,18.25
2019-06-08T15:35:05.026Z,18.31
2019-06-08T15:37:38.062Z,18.46
2019-06-08T15:40:10.816Z,18.62
2019-06-08T15:42:42.239Z,18.48
2019-06-08T15:45:13.739Z,18.56
2019-06-08T15:47:45.080Z,18.49
2019-06-08T15:50:17.937Z,18.62
2019-06-08T15:52:49.519Z,18.59
2019-06-08T15:55:22.882Z,18.47
2019-06-08T15:57:54.767Z,18.40
2019-06-08T16:00:28.353Z,18.35
2019-06-08T16:03:01.082Z,18.40
2019-06-08T16:05:33.852Z,18.42
2019-06-08T16:08:42.596Z,18.69
2019-06-08T16:11:13.952Z,18.59
2019-06-08T16:13:45.293Z,18.61
2019-06-08T16:16:16.650Z,18.59
2019-06-08T16:18:48.034Z,18.63
2019-06-08T16:21:19.432Z,18.57
2019-06-08T16:23:50.989Z,18.58
2019-06-08T16:26:22.423Z,18.62
2019-06-08T16:28:54.044Z,18.54
2019-06-08T16:31:26.981Z,18.51
2019-06-08T16:33:58.635Z,18.57
2019-06-08T16:36:31.406Z,18.52
2019-06-08T16:39:04.528Z,18.54
2019-06-08T16:41:36.362Z,18.49
2019-06-08T16:44:07.799Z,18.39
2019-06-08T16:46:39.526Z,18.36
2019-06-08T16:49:11.012Z,18.30
2019-06-08T16:51:42.540Z,18.20
2019-06-08T16:54:13.915Z,18.03
2019-06-08T16:56:45.424Z,17.73
2019-06-08T16:59:16.767Z,17.06
2019-06-08T17:01:48.143Z,16.79
2019-06-08T17:04:19.472Z,16.85
2019-06-08T17:06:50.922Z,16.86
2019-06-08T17:09:23.261Z,16.86
2019-06-08T17:11:54.959Z,16.85
2019-06-08T17:14:26.296Z,16.87
2019-06-08T17:16:57.607Z,16.85
2019-06-08T17:19:29.930Z,16.88
2019-06-08T17:22:04.724Z,17.03
2019-06-08T17:24:38.985Z,17.19
2019-06-08T17:27:25.923Z,17.34
2019-06-08T17:29:43.537Z,17.38
2019-06-08T17:32:18.041Z,17.55
2019-06-08T17:34:49.552Z,17.53
2019-06-08T17:37:21.332Z,17.65
2019-06-08T17:39:52.784Z,17.73
2019-06-08T17:42:24.342Z,17.63
2019-06-08T17:44:56.644Z,17.61
2019-06-08T17:47:28.046Z,17.58
2019-06-08T17:49:59.451Z,17.57
2019-06-08T17:52:32.748Z,17.64
2019-06-08T17:55:05.208Z,17.71
2019-06-08T17:57:44.695Z,17.85
2019-06-08T18:00:11.469Z,17.69
2019-06-08T18:02:45.243Z,17.68
2019-06-08T18:05:17.956Z,17.72
2019-06-08T18:07:49.754Z,17.75
2019-06-08T18:10:21.312Z,17.72
2019-06-08T18:12:52.683Z,17.65
2019-06-08T18:15:24.368Z,17.68
2019-06-08T18:17:57.683Z,17.63
2019-06-08T18:20:28.953Z,17.47
2019-06-08T18:23:01.738Z,17.51
2019-06-08T18:25:34.251Z,17.60
2019-06-08T18:28:11.025Z,17.40
2019-06-08T18:30:41.743Z,17.18
2019-06-08T18:33:12.688Z,17.10
2019-06-08T18:35:44.884Z,16.88
2019-06-08T18:38:18.044Z,16.84
2019-06-08T18:40:52.479Z,16.87
2019-06-08T18:43:52.731Z,16.79
2019-06-08T18:46:29.568Z,16.74
2019-06-08T18:49:04.205Z,16.73
2019-06-08T18:51:38.153Z,16.62
2019-06-08T18:54:30.248Z,16.61
2019-06-08T18:57:05.379Z,16.40
2019-06-08T18:59:41.842Z,16.50
2019-06-08T19:02:09.366Z,16.49
2019-06-08T19:04:54.440Z,16.28
2019-06-08T19:07:28.286Z,16.37
2019-06-08T19:10:04.180Z,16.35
2019-06-08T19:12:38.337Z,16.43
2019-06-08T19:15:11.462Z,16.59
2019-06-08T19:17:48.246Z,16.63
2019-06-08T19:20:17.497Z,16.47
2019-06-08T19:22:54.121Z,16.33
2019-06-08T19:25:22.784Z,16.42
2019-06-08T19:27:54.519Z,16.57
2019-06-08T19:30:28.143Z,16.34
2019-06-08T19:32:59.967Z,16.52
2019-06-08T19:35:34.571Z,16.30
2019-06-08T19:38:07.270Z,16.14
2019-06-08T19:40:39.546Z,16.28
2019-06-08T19:43:13.402Z,16.16
2019-06-08T19:45:46.444Z,16.13
2019-06-08T19:48:17.991Z,16.03
2019-06-08T19:50:54.044Z,15.98
2019-06-08T19:53:22.443Z,15.90
2019-06-08T19:55:54.282Z,16.01
2019-06-08T19:58:28.298Z,16.04
2019-06-08T20:00:59.620Z,16.05
2019-06-08T20:03:31.114Z,15.96
2019-06-08T20:06:02.915Z,16.02
2019-06-08T20:08:34.801Z,16.04
2019-06-08T20:11:08.324Z,15.95
2019-06-08T20:13:39.619Z,15.99
2019-06-08T20:16:11.037Z,15.85
2019-06-08T20:18:43.578Z,15.97
2019-06-08T20:21:15.025Z,15.82
2019-06-08T20:23:48.270Z,15.91
2019-06-08T20:26:19.553Z,15.86
2019-06-08T20:28:57.680Z,15.83
2019-06-08T20:31:24.177Z,15.94
2019-06-08T20:33:57.618Z,15.86
2019-06-08T20:36:30.200Z,15.82
2019-06-08T20:39:01.596Z,15.72
2019-06-08T20:41:37.460Z,15.76
2019-06-08T20:44:08.833Z,15.66
2019-06-08T20:46:40.372Z,15.58
2019-06-08T20:49:12.164Z,15.75
2019-06-08T20:51:44.790Z,15.65
2019-06-08T20:54:17.222Z,15.67
2019-06-08T20:56:50.492Z,15.69
2019-06-08T20:59:29.977Z,15.69
2019-06-08T21:01:58.636Z,15.66
2019-06-08T21:04:32.443Z,15.74
2019-06-08T21:07:03.849Z,15.67
2019-06-08T21:09:37.099Z,15.61
2019-06-08T21:12:08.455Z,15.55
2019-06-08T21:14:40.169Z,15.47
2019-06-08T21:17:11.593Z,15.62
2019-06-08T21:19:43.044Z,15.55
2019-06-08T21:22:14.468Z,15.46
2019-06-08T21:24:50.037Z,15.52
2019-06-08T21:27:19.164Z,15.40
2019-06-08T21:29:59.763Z,15.39
2019-06-08T21:32:27.676Z,15.34
2019-06-08T21:35:00.235Z,15.34
2019-06-08T21:37:31.519Z,15.28
2019-06-08T21:40:04.223Z,15.26
2019-06-08T21:42:37.074Z,15.36
2019-06-08T21:45:09.616Z,15.16
2019-06-08T21:47:41.262Z,15.13
2019-06-08T21:50:12.894Z,15.08
2019-06-08T21:52:44.270Z,15.12
2019-06-08T21:55:17.712Z,14.96
2019-06-08T21:57:51.108Z,15.09
2019-06-08T22:00:38.854Z,15.05
2019-06-08T22:03:00.148Z,14.98
2019-06-08T22:05:32.068Z,14.94
2019-06-08T22:08:03.726Z,14.94
2019-06-08T22:10:37.551Z,14.96
2019-06-08T22:13:10.351Z,15.00
2019-06-08T22:15:41.973Z,14.94
2019-06-08T22:18:13.799Z,14.91
2019-06-08T22:20:47.382Z,14.94
2019-06-08T22:23:18.178Z,14.95
2019-06-08T22:25:49.500Z,15.00
2019-06-08T22:28:20.877Z,15.05
2019-06-08T22:30:53.572Z,15.07
2019-06-08T22:33:25.283Z,14.81
2019-06-08T22:35:58.678Z,14.86
2019-06-08T22:38:29.850Z,14.97
2019-06-08T22:41:02.082Z,14.97
2019-06-08T22:43:37.259Z,14.94
2019-06-08T22:47:50.653Z,15.09
2019-06-08T22:50:22.014Z,14.99
2019-06-08T22:52:53.986Z,14.91
2019-06-08T22:55:27.749Z,14.87
2019-06-08T22:58:01.846Z,14.99
2019-06-08T23:00:45.913Z,14.99
2019-06-08T23:03:08.607Z,14.85
2019-06-08T23:05:40.280Z,14.78
2019-06-08T23:08:11.697Z,14.79
2019-06-08T23:10:43.073Z,14.88
2019-06-08T23:13:14.389Z,14.75
2019-06-08T23:15:47.827Z,14.73
2019-06-08T23:18:19.516Z,14.70
2019-06-08T23:20:51.083Z,14.72
2019-06-08T23:23:22.941Z,14.71
2019-06-08T23:25:55.609Z,14.74
2019-06-08T23:28:28.253Z,14.75
2019-06-08T23:31:11.845Z,14.63
2019-06-08T23:33:32.932Z,14.63
2019-06-08T23:38:37.662Z,14.56
2019-06-08T23:41:10.172Z,14.74
2019-06-08T23:43:41.630Z,14.60
2019-06-08T23:46:13.146Z,14.71
2019-06-08T23:48:44.488Z,14.59
2019-06-08T23:51:18.045Z,14.52
2019-06-08T23:53:49.302Z,14.50
2019-06-08T23:56:20.724Z,14.50
2019-06-08T23:58:52.076Z,14.51
